Time;durP1;ratioP1;P1;durP2;ratioP2;P2;SDS_P1;SDS_P2;PMS_P1;PMS_P2;Temp;Humidity;BMP_temperature;BMP_pressure;BME280_temperature;BME280_humidity;BME280_pressure;Samples;Min_cycle;Max_cycle;Signal;HPM_P1;HPM_P2
2022/01/24 00:02:54;;;;;;;22.73;12.97;;;;;4.10;102906.00;;;;10416484;28;20666;-78
2022/01/24 00:07:56;;;;;;;22.20;13.10;;;;;4.00;102902.00;;;;10446790;28;20643;-78
2022/01/24 00:18:29;;;;;;;20.23;12.00;;;;;4.00;102879.00;;;;10406130;28;20664;-78
2022/01/24 00:28:52;;;;;;;21.87;13.37;;;;;4.00;102879.00;;;;10438891;28;20684;-78
2022/01/24 00:33:55;;;;;;;24.80;13.87;;;;;4.00;102877.00;;;;10439930;28;20251;-78
2022/01/24 00:38:57;;;;;;;24.80;14.07;;;;;4.00;102875.00;;;;10423895;28;20205;-78
2022/01/24 00:45:05;;;;;;;24.60;14.43;;;;;4.10;102877.00;;;;10423974;28;20191;-78
2022/01/24 00:54:53;;;;;;;25.43;13.67;;;;;4.10;102899.00;;;;10457194;28;20672;-78
2022/01/24 00:59:55;;;;;;;25.10;14.13;;;;;4.20;102885.00;;;;10423905;28;20194;-79
2022/01/24 01:05:51;;;;;;;24.83;13.77;;;;;4.10;102874.00;;;;10471146;28;20200;-78
2022/01/24 01:21:09;;;;;;;22.70;12.90;;;;;4.10;102875.00;;;;10457470;28;20194;-78
2022/01/24 01:26:40;;;;;;;24.93;14.40;;;;;4.10;102877.00;;;;10455996;28;20210;-78
2022/01/24 01:58:47;;;;;;;20.47;12.43;;;;;4.10;102882.00;;;;10411100;28;20194;-78
2022/01/24 02:03:54;;;;;;;20.33;11.73;;;;;4.10;102887.00;;;;10475911;28;20204;-79
2022/01/24 02:09:02;;;;;;;23.00;12.63;;;;;4.10;102883.00;;;;10472333;28;20230;-78
2022/01/24 02:14:09;;;;;;;21.70;13.33;;;;;4.10;102881.00;;;;10429940;28;20201;-78
2022/01/24 02:24:22;;;;;;;21.20;12.20;;;;;4.10;102889.00;;;;10463814;28;20217;-79
2022/01/24 02:29:43;;;;;;;18.83;11.77;;;;;4.00;102880.00;;;;10410067;28;20199;-78
2022/01/24 02:34:49;;;;;;;22.80;13.07;;;;;4.00;102878.00;;;;10404760;28;20187;-78
2022/01/24 02:50:01;;;;;;;24.17;13.00;;;;;4.00;102879.00;;;;10427455;28;20289;-78
2022/01/24 02:55:03;;;;;;;21.97;12.83;;;;;4.00;102872.00;;;;10461659;28;20190;-78
2022/01/24 03:00:06;;;;;;;21.23;12.40;;;;;4.00;102870.00;;;;10477710;28;20626;-78
2022/01/24 03:05:08;;;;;;;22.17;12.50;;;;;4.00;102869.00;;;;10428448;28;20190;-78
2022/01/24 03:10:22;;;;;;;20.73;11.83;;;;;4.00;102869.00;;;;10419557;28;20222;-78
2022/01/24 03:15:25;;;;;;;21.80;12.77;;;;;4.00;102868.00;;;;10402884;28;20654;-78
2022/01/24 03:20:27;;;;;;;20.67;12.37;;;;;4.00;102854.00;;;;10407557;28;20187;-78
2022/01/24 03:25:29;;;;;;;21.27;12.27;;;;;4.00;102855.00;;;;10386460;28;20553;-78
2022/01/24 03:30:33;;;;;;;20.73;11.77;;;;;3.90;102855.00;;;;10402067;28;20215;-78
2022/01/24 03:35:35;;;;;;;22.47;12.30;;;;;3.90;102861.00;;;;10369356;28;20198;-78
2022/01/24 03:40:38;;;;;;;23.83;13.23;;;;;3.90;102849.00;;;;10402128;28;20191;-78
2022/01/24 03:45:46;;;;;;;22.20;12.87;;;;;3.90;102837.00;;;;10369082;28;20829;-78
2022/01/24 03:50:50;;;;;;;25.47;13.93;;;;;3.90;102836.00;;;;10419021;28;20230;-78
2022/01/24 03:55:51;;;;;;;22.73;14.17;;;;;3.90;102840.00;;;;10410108;28;20669;-78
2022/01/24 04:00:55;;;;;;;20.43;13.40;;;;;3.90;102832.00;;;;10415145;28;20661;-78
2022/01/24 04:05:57;;;;;;;22.50;13.50;;;;;3.90;102838.00;;;;10450239;28;20196;-78
2022/01/24 04:11:00;;;;;;;22.10;13.93;;;;;3.90;102844.00;;;;10451426;28;20229;-79
2022/01/24 04:21:35;;;;;;;23.50;15.90;;;;;3.90;102843.00;;;;10384199;28;20191;-78
2022/01/24 04:26:38;;;;;;;22.20;13.60;;;;;3.90;102842.00;;;;10393443;28;20203;-79
2022/01/24 04:31:41;;;;;;;23.47;14.57;;;;;3.80;102844.00;;;;10457443;28;20194;-78
2022/01/24 04:36:43;;;;;;;21.60;14.50;;;;;3.80;102846.00;;;;10431025;28;20197;-78
2022/01/24 04:41:49;;;;;;;21.07;14.00;;;;;3.90;102836.00;;;;10458797;28;20197;-78
2022/01/24 04:56:58;;;;;;;21.57;14.10;;;;;3.80;102850.00;;;;10427382;28;20554;-78
2022/01/24 05:02:01;;;;;;;25.80;15.43;;;;;3.70;102844.00;;;;10407730;28;20692;-78
2022/01/24 05:07:04;;;;;;;25.03;15.37;;;;;3.70;102840.00;;;;10439673;28;20297;-78
2022/01/24 05:12:26;;;;;;;21.40;14.83;;;;;3.70;102849.00;;;;10439868;28;20193;-78
2022/01/24 05:27:59;;;;;;;27.37;15.70;;;;;3.60;102841.00;;;;10406623;28;20217;-78
2022/01/24 05:33:02;;;;;;;24.50;15.33;;;;;3.60;102847.00;;;;10423244;28;20237;-78
2022/01/24 05:38:04;;;;;;;22.30;14.47;;;;;3.60;102846.00;;;;10422499;28;20554;-78
2022/01/24 05:43:09;;;;;;;22.87;13.97;;;;;3.60;102843.00;;;;10439424;28;20195;-78
2022/01/24 05:48:11;;;;;;;24.60;14.70;;;;;3.60;102848.00;;;;10414448;28;20210;-78
2022/01/24 05:53:13;;;;;;;28.37;15.60;;;;;3.60;102836.00;;;;10406316;28;20198;-78
2022/01/24 05:58:15;;;;;;;28.53;16.27;;;;;3.60;102834.00;;;;10402103;28;20198;-78
2022/01/24 06:03:17;;;;;;;28.93;16.07;;;;;3.60;102841.00;;;;10481121;28;20592;-78
2022/01/24 06:08:19;;;;;;;26.00;16.50;;;;;3.50;102839.00;;;;10421200;28;20219;-78
2022/01/24 06:13:21;;;;;;;27.67;16.40;;;;;3.50;102837.00;;;;10380882;28;20199;-78
2022/01/24 06:18:26;;;;;;;25.87;16.20;;;;;3.50;102849.00;;;;10423983;28;20190;-78
2022/01/24 06:23:28;;;;;;;26.33;16.77;;;;;3.50;102840.00;;;;10393806;28;20561;-78
2022/01/24 06:28:30;;;;;;;28.13;15.87;;;;;3.50;102842.00;;;;10415002;28;20256;-78
2022/01/24 06:33:33;;;;;;;27.13;16.17;;;;;3.50;102848.00;;;;10412745;28;20194;-79
2022/01/24 06:38:35;;;;;;;26.40;16.87;;;;;3.50;102836.00;;;;10407820;28;20247;-78
2022/01/24 06:43:37;;;;;;;28.13;17.67;;;;;3.50;102844.00;;;;10486621;28;20197;-78
2022/01/24 06:48:39;;;;;;;26.80;17.13;;;;;3.50;102850.00;;;;10441134;28;20209;-79
2022/01/24 06:53:47;;;;;;;26.53;16.43;;;;;3.50;102862.00;;;;10461029;28;20194;-78
2022/01/24 06:58:54;;;;;;;27.00;16.63;;;;;3.50;102853.00;;;;10430910;28;20214;-78
2022/01/24 07:04:03;;;;;;;31.53;18.03;;;;;3.50;102862.00;;;;10405303;28;20674;-79
2022/01/24 07:09:05;;;;;;;27.27;17.63;;;;;3.40;102859.00;;;;10418501;28;20229;-79
2022/01/24 07:14:11;;;;;;;29.13;17.60;;;;;3.50;102860.00;;;;10411233;28;20191;-78
2022/01/24 07:19:13;;;;;;;32.90;17.73;;;;;3.50;102863.00;;;;10411956;28;20183;-79
2022/01/24 07:24:15;;;;;;;32.50;18.27;;;;;3.40;102872.00;;;;10417884;28;20562;-79
2022/01/24 07:29:18;;;;;;;29.90;18.97;;;;;3.40;102875.00;;;;10420296;28;20218;-78
2022/01/24 07:34:20;;;;;;;29.27;17.83;;;;;3.50;102876.00;;;;10423639;28;20187;-78
2022/01/24 07:39:22;;;;;;;31.07;18.47;;;;;3.50;102884.00;;;;10445884;28;20305;-79
2022/01/24 07:44:24;;;;;;;28.50;17.40;;;;;3.50;102872.00;;;;10419274;28;20194;-79
2022/01/24 07:49:26;;;;;;;34.83;20.33;;;;;3.60;102877.00;;;;10443302;28;20257;-78
2022/01/24 07:54:28;;;;;;;33.27;19.27;;;;;3.60;102866.00;;;;10442986;28;20209;-78
2022/01/24 07:59:30;;;;;;;32.37;18.97;;;;;3.60;102872.00;;;;10426140;28;20190;-78
2022/01/24 08:04:33;;;;;;;29.50;17.67;;;;;3.70;102874.00;;;;10420015;28;20710;-78
2022/01/24 08:09:34;;;;;;;30.97;17.73;;;;;3.80;102876.00;;;;10457677;28;20217;-78
2022/01/24 08:14:36;;;;;;;30.50;17.60;;;;;3.80;102884.00;;;;10442778;28;20186;-78
2022/01/24 08:19:39;;;;;;;31.73;17.77;;;;;3.90;102888.00;;;;10408118;28;20237;-77
2022/01/24 08:24:41;;;;;;;27.77;15.97;;;;;4.00;102896.00;;;;10429927;28;20195;-79
2022/01/24 08:29:46;;;;;;;29.83;18.17;;;;;4.10;102895.00;;;;10457918;28;20217;-80
2022/01/24 08:34:48;;;;;;;29.30;16.87;;;;;4.10;102899.00;;;;10407587;28;20195;-79
2022/01/24 08:40:06;;;;;;;29.17;17.00;;;;;4.10;102896.00;;;;10428558;28;20190;-80
2022/01/24 08:50:36;;;;;;;28.33;17.07;;;;;4.10;102902.00;;;;10458028;28;20201;-81
2022/01/24 08:55:39;;;;;;;29.00;17.60;;;;;4.30;102903.00;;;;10427838;28;20194;-81
2022/01/24 09:00:45;;;;;;;30.10;17.57;;;;;4.60;102895.00;;;;10422200;28;20329;-80
2022/01/24 09:05:52;;;;;;;27.47;16.80;;;;;5.10;102898.00;;;;10429644;28;20197;-81
2022/01/24 09:10:54;;;;;;;26.30;17.07;;;;;5.60;102897.00;;;;10418519;28;20627;-80
2022/01/24 09:15:56;;;;;;;24.00;15.57;;;;;5.90;102888.00;;;;10423801;28;20207;-79
2022/01/24 09:20:59;;;;;;;24.07;15.13;;;;;6.20;102891.00;;;;10428065;28;20281;-79
2022/01/24 09:26:03;;;;;;;24.07;15.80;;;;;6.40;102900.00;;;;10421322;28;20194;-80
2022/01/24 09:31:06;;;;;;;25.63;16.30;;;;;6.60;102895.00;;;;10437362;28;20198;-79
2022/01/24 09:36:09;;;;;;;21.60;14.57;;;;;6.80;102891.00;;;;10438172;28;20186;-79
2022/01/24 09:41:15;;;;;;;24.83;15.17;;;;;6.90;102906.00;;;;10420865;28;20193;-79
2022/01/24 09:46:17;;;;;;;22.40;15.20;;;;;7.00;102906.00;;;;10419747;28;20646;-79
2022/01/24 09:51:22;;;;;;;23.20;14.83;;;;;7.00;102900.00;;;;10439596;28;20237;-79
2022/01/24 09:56:24;;;;;;;22.53;14.77;;;;;7.00;102908.00;;;;10421809;28;20298;-78
2022/01/24 10:01:33;;;;;;;22.67;15.17;;;;;7.00;102908.00;;;;10422545;28;20202;-78
2022/01/24 10:07:17;;;;;;;22.73;15.40;;;;;7.20;102905.00;;;;10431307;28;20198;-79
2022/01/24 10:17:33;;;;;;;23.90;15.37;;;;;7.50;102898.00;;;;10467091;28;20241;-79
2022/01/24 10:22:35;;;;;;;24.23;14.27;;;;;7.60;102885.00;;;;10426954;28;20194;-78
2022/01/24 10:27:41;;;;;;;21.80;15.23;;;;;7.80;102886.00;;;;10395432;28;20203;-78
2022/01/24 10:32:48;;;;;;;22.37;15.50;;;;;8.00;102888.00;;;;10414546;28;20273;-78
2022/01/24 10:43:41;;;;;;;21.87;14.67;;;;;8.20;102896.00;;;;10452363;28;20208;-78
2022/01/24 10:48:45;;;;;;;21.67;14.97;;;;;8.30;102887.00;;;;10443511;28;20704;-79
2022/01/24 10:53:55;;;;;;;20.37;13.93;;;;;8.30;102878.00;;;;10446024;28;20190;-79
2022/01/24 10:59:11;;;;;;;21.90;14.60;;;;;8.40;102871.00;;;;10437334;28;20189;-79
2022/01/24 11:04:15;;;;;;;21.43;14.00;;;;;8.80;102859.00;;;;10448975;28;20194;-79
2022/01/24 11:09:29;;;;;;;20.57;14.30;;;;;9.00;102859.00;;;;10444714;28;20325;-79
2022/01/24 11:14:32;;;;;;;19.00;13.27;;;;;9.10;102863.00;;;;10448187;28;20221;-79
2022/01/24 11:19:41;;;;;;;18.63;13.67;;;;;9.30;102852.00;;;;10482299;28;20197;-79
2022/01/24 11:24:51;;;;;;;20.33;14.53;;;;;9.20;102841.00;;;;10462161;28;20194;-79
2022/01/24 11:30:28;;;;;;;20.23;13.60;;;;;9.30;102842.00;;;;10474457;28;20566;-79
2022/01/24 11:35:33;;;;;;;19.97;13.77;;;;;9.20;102844.00;;;;10428808;28;20208;-78
2022/01/24 11:40:48;;;;;;;22.03;14.83;;;;;9.40;102835.00;;;;10466128;28;20217;-79
2022/01/24 11:46:00;;;;;;;20.13;13.60;;;;;9.60;102827.00;;;;10416093;28;20210;-78
2022/01/24 11:51:11;;;;;;;20.47;14.83;;;;;9.50;102826.00;;;;10400150;28;20610;-79
2022/01/24 11:56:19;;;;;;;21.27;13.53;;;;;9.50;102830.00;;;;10436763;28;20672;-79
2022/01/24 12:01:36;;;;;;;21.27;13.87;;;;;9.50;102820.00;;;;10449415;28;20568;-78
2022/01/24 12:07:16;;;;;;;24.13;15.57;;;;;9.40;102812.00;;;;10450498;28;20881;-79
2022/01/24 12:12:41;;;;;;;20.97;14.60;;;;;9.60;102811.00;;;;10459092;28;20193;-79
2022/01/24 12:17:52;;;;;;;22.13;15.03;;;;;9.60;102814.00;;;;10430638;28;20206;-79
2022/01/24 12:22:54;;;;;;;23.90;15.57;;;;;9.80;102815.00;;;;10440269;28;20557;-79
2022/01/24 12:28:18;;;;;;;21.53;15.03;;;;;9.80;102807.00;;;;10431924;28;20213;-79
2022/01/24 12:33:41;;;;;;;22.90;14.87;;;;;9.80;102796.00;;;;10459071;28;20244;-79
2022/01/24 12:38:49;;;;;;;22.43;14.00;;;;;10.00;102794.00;;;;10414135;28;20194;-79
2022/01/24 12:48:59;;;;;;;22.67;15.07;;;;;9.90;102789.00;;;;10433153;28;20218;-79
2022/01/24 12:54:05;;;;;;;21.87;13.73;;;;;9.90;102784.00;;;;10467352;28;20649;-79
2022/01/24 12:59:08;;;;;;;21.10;14.60;;;;;9.80;102776.00;;;;10451270;28;20182;-79
2022/01/24 13:04:12;;;;;;;24.77;15.97;;;;;9.60;102779.00;;;;10394185;28;20207;-79
2022/01/24 13:09:24;;;;;;;24.70;14.87;;;;;9.60;102772.00;;;;10450848;28;20222;-79
2022/01/24 13:14:46;;;;;;;25.50;15.20;;;;;9.60;102773.00;;;;10446289;28;20190;-78
2022/01/24 13:25:26;;;;;;;22.17;13.97;;;;;9.50;102786.00;;;;10424580;28;20200;-79
2022/01/24 13:30:38;;;;;;;21.87;14.03;;;;;9.50;102775.00;;;;10459514;28;20201;-79
2022/01/24 13:35:41;;;;;;;22.37;14.47;;;;;9.40;102769.00;;;;10467664;28;20201;-80
2022/01/24 13:40:59;;;;;;;22.33;13.87;;;;;9.30;102765.00;;;;10501412;28;20196;-79
2022/01/24 13:46:16;;;;;;;22.50;14.40;;;;;9.30;102761.00;;;;10456402;28;20197;-79
2022/01/24 13:51:21;;;;;;;21.47;14.60;;;;;9.30;102761.00;;;;10495901;28;20215;-79
2022/01/24 13:56:28;;;;;;;23.37;14.77;;;;;9.20;102752.00;;;;10474005;28;20190;-79
2022/01/24 14:01:31;;;;;;;28.43;14.83;;;;;8.90;102749.00;;;;10456165;28;20197;-79
2022/01/24 14:06:36;;;;;;;26.30;15.23;;;;;8.70;102747.00;;;;10482725;28;20229;-79
2022/01/24 14:11:47;;;;;;;21.47;14.33;;;;;8.60;102748.00;;;;10481070;28;20208;-79
2022/01/24 14:22:55;;;;;;;25.17;13.57;;;;;8.70;102742.00;;;;10465385;28;20209;-79
2022/01/24 14:28:05;;;;;;;24.67;14.17;;;;;8.50;102740.00;;;;10522395;28;20201;-78
2022/01/24 14:33:17;;;;;;;25.40;15.57;;;;;8.90;102736.00;;;;10492967;28;20199;-79
2022/01/24 14:38:34;;;;;;;25.67;14.40;;;;;8.70;102742.00;;;;10486646;28;20190;-79
2022/01/24 14:49:06;;;;;;;24.77;14.63;;;;;7.60;102748.00;;;;10463264;28;20288;-79
2022/01/24 14:54:17;;;;;;;26.37;14.77;;;;;7.40;102752.00;;;;10478491;28;20211;-79
2022/01/24 14:59:21;;;;;;;24.73;14.13;;;;;7.20;102747.00;;;;10442556;28;20198;-79
2022/01/24 15:04:23;;;;;;;24.27;14.33;;;;;7.00;102739.00;;;;10479749;28;20682;-79
2022/01/24 15:09:29;;;;;;;27.10;15.17;;;;;6.90;102746.00;;;;10511462;28;20664;-79
2022/01/24 15:14:38;;;;;;;21.63;13.80;;;;;6.80;102747.00;;;;10469612;28;20197;-79
2022/01/24 15:30:18;;;;;;;29.93;16.43;;;;;6.50;102736.00;;;;10478552;28;20228;-78
2022/01/24 15:35:31;;;;;;;23.83;13.67;;;;;6.30;102735.00;;;;10470546;28;20241;-79
2022/01/24 15:40:34;;;;;;;27.33;15.30;;;;;6.10;102735.00;;;;10463890;28;20182;-79
2022/01/24 15:50:41;;;;;;;29.73;16.17;;;;;5.80;102743.00;;;;10450350;28;20322;-79
2022/01/24 15:56:12;;;;;;;28.90;15.23;;;;;5.60;102742.00;;;;10486086;28;20191;-78
2022/01/24 16:01:06;;;;;;;33.73;18.73;;;;;5.50;102740.00;;;;10462043;28;20201;-78
2022/01/24 16:06:08;;;;;;;33.93;20.37;;;;;5.30;102737.00;;;;10499728;28;20229;-78
2022/01/24 16:11:10;;;;;;;30.43;17.30;;;;;5.10;102731.00;;;;10499752;28;20267;-79
2022/01/24 16:16:14;;;;;;;32.63;17.30;;;;;4.80;102737.00;;;;10454911;28;20259;-79
2022/01/24 16:26:24;;;;;;;28.67;16.80;;;;;4.50;102744.00;;;;10471661;28;20227;-78
2022/01/24 16:31:26;;;;;;;31.87;16.93;;;;;4.30;102742.00;;;;10497351;28;20200;-78
2022/01/24 16:36:28;;;;;;;31.77;17.43;;;;;4.10;102758.00;;;;10435442;28;20198;-78
2022/01/24 16:41:37;;;;;;;38.40;18.67;;;;;4.00;102757.00;;;;10485021;28;20262;-78
2022/01/24 16:47:06;;;;;;;33.37;18.43;;;;;3.80;102760.00;;;;10482461;28;20193;-78
2022/01/24 16:52:12;;;;;;;30.50;17.20;;;;;3.70;102767.00;;;;10444518;28;20212;-79
2022/01/24 16:57:17;;;;;;;34.53;16.87;;;;;3.50;102776.00;;;;10472507;28;20208;-79
2022/01/24 17:02:19;;;;;;;33.33;17.57;;;;;3.40;102778.00;;;;10460679;28;20586;-78
2022/01/24 17:07:21;;;;;;;37.47;19.53;;;;;3.30;102797.00;;;;10461430;28;20292;-78
2022/01/24 17:12:28;;;;;;;34.93;18.97;;;;;3.10;102793.00;;;;10454616;28;20202;-79
2022/01/24 17:17:33;;;;;;;33.97;18.40;;;;;3.00;102799.00;;;;10478057;28;20235;-78
2022/01/24 17:22:35;;;;;;;37.27;20.90;;;;;2.90;102796.00;;;;10462366;28;20194;-78
2022/01/24 17:27:37;;;;;;;44.40;24.50;;;;;2.80;102793.00;;;;10478532;28;20193;-78
2022/01/24 17:32:40;;;;;;;46.13;23.10;;;;;2.70;102801.00;;;;10468077;28;20193;-79
2022/01/24 17:37:42;;;;;;;43.10;23.43;;;;;2.60;102799.00;;;;10479923;28;20200;-78
2022/01/24 17:42:45;;;;;;;44.80;22.83;;;;;2.50;102789.00;;;;10478819;28;20186;-78
2022/01/24 17:48:01;;;;;;;44.50;23.60;;;;;2.30;102793.00;;;;10439076;28;20244;-78
2022/01/24 17:53:03;;;;;;;43.60;24.10;;;;;2.20;102787.00;;;;10479536;28;20198;-78
2022/01/24 17:58:05;;;;;;;50.10;24.10;;;;;2.10;102796.00;;;;10444464;28;20217;-78
2022/01/24 18:03:07;;;;;;;53.27;28.60;;;;;2.10;102802.00;;;;10437299;28;20202;-79
2022/01/24 18:08:11;;;;;;;50.07;27.17;;;;;2.00;102802.00;;;;10463628;28;20217;-80
2022/01/24 18:13:13;;;;;;;47.90;24.67;;;;;1.90;102802.00;;;;10471305;28;20202;-78
2022/01/24 18:18:15;;;;;;;49.00;23.67;;;;;1.90;102807.00;;;;10499574;28;20189;-79
2022/01/24 18:23:17;;;;;;;46.57;23.53;;;;;1.80;102813.00;;;;10476033;28;20185;-79
2022/01/24 18:28:19;;;;;;;48.03;24.37;;;;;1.70;102822.00;;;;10485873;28;20327;-79
2022/01/24 18:33:25;;;;;;;52.00;26.20;;;;;1.70;102831.00;;;;10469374;28;20553;-79
2022/01/24 18:38:27;;;;;;;57.03;28.17;;;;;1.70;102837.00;;;;10475642;28;20202;-79
2022/01/24 18:43:33;;;;;;;57.77;31.43;;;;;1.70;102822.00;;;;10478267;28;20196;-78
2022/01/24 18:48:36;;;;;;;61.50;28.87;;;;;1.70;102828.00;;;;10451922;28;20643;-78
2022/01/24 18:53:41;;;;;;;56.93;28.57;;;;;1.70;102825.00;;;;10427769;28;20266;-78
2022/01/24 18:58:43;;;;;;;59.10;30.93;;;;;1.60;102813.00;;;;10479336;28;20189;-78
2022/01/24 19:03:45;;;;;;;61.83;32.37;;;;;1.50;102828.00;;;;10486352;28;20212;-78
2022/01/24 19:08:47;;;;;;;62.53;30.13;;;;;1.40;102823.00;;;;10463473;28;20210;-78
2022/01/24 19:13:49;;;;;;;61.93;29.87;;;;;1.30;102825.00;;;;10436015;28;20201;-78
2022/01/24 19:18:59;;;;;;;67.37;34.20;;;;;1.20;102834.00;;;;10450008;28;20197;-78
2022/01/24 19:24:02;;;;;;;70.97;33.53;;;;;1.20;102839.00;;;;10440621;28;20209;-78
2022/01/24 19:29:05;;;;;;;65.40;33.40;;;;;1.20;102847.00;;;;10460946;28;20213;-79
2022/01/24 19:34:07;;;;;;;68.87;33.80;;;;;1.10;102844.00;;;;10451747;28;20257;-78
2022/01/24 19:39:10;;;;;;;69.83;37.67;;;;;1.00;102843.00;;;;10448784;28;20656;-78
2022/01/24 19:44:12;;;;;;;88.27;43.73;;;;;0.90;102842.00;;;;10466675;28;20276;-78
2022/01/24 19:49:16;;;;;;;75.27;36.90;;;;;0.90;102851.00;;;;10465718;28;20244;-78
2022/01/24 19:54:20;;;;;;;77.87;37.13;;;;;0.90;102845.00;;;;10468837;28;20201;-78
2022/01/24 19:59:34;;;;;;;76.30;36.27;;;;;0.80;102844.00;;;;10447116;28;20189;-78
2022/01/24 20:04:37;;;;;;;79.97;38.67;;;;;0.80;102844.00;;;;10442632;28;20206;-79
2022/01/24 20:09:39;;;;;;;69.03;37.50;;;;;0.70;102858.00;;;;10464342;28;20217;-79
2022/01/24 20:14:41;;;;;;;78.50;38.23;;;;;0.60;102859.00;;;;10430528;28;20218;-79
2022/01/24 20:19:44;;;;;;;81.47;38.53;;;;;0.50;102864.00;;;;10445369;28;20191;-79
2022/01/24 20:24:46;;;;;;;73.87;38.07;;;;;0.50;102858.00;;;;10486750;28;20196;-79
2022/01/24 20:29:48;;;;;;;77.80;39.77;;;;;0.40;102858.00;;;;10491365;28;20223;-79
2022/01/24 20:34:50;;;;;;;89.97;42.07;;;;;0.30;102857.00;;;;10473182;28;20197;-78
2022/01/24 20:39:52;;;;;;;79.17;39.37;;;;;0.30;102866.00;;;;10488416;28;20668;-78
2022/01/24 20:44:54;;;;;;;75.87;39.30;;;;;0.20;102844.00;;;;10506427;28;20192;-79
2022/01/24 20:49:58;;;;;;;80.33;40.60;;;;;0.10;102857.00;;;;10489216;28;20220;-78
2022/01/24 20:55:01;;;;;;;84.63;40.30;;;;;0.00;102853.00;;;;10487694;28;20193;-79
2022/01/24 21:00:07;;;;;;;85.13;40.83;;;;;-0.10;102859.00;;;;10469014;28;20191;-78
2022/01/24 21:05:09;;;;;;;81.83;39.43;;;;;-0.10;102867.00;;;;10419001;28;20194;-78
2022/01/24 21:10:17;;;;;;;79.43;38.03;;;;;-0.20;102862.00;;;;10471912;28;20213;-78
2022/01/24 21:15:22;;;;;;;70.33;35.10;;;;;-0.20;102877.00;;;;10463706;28;20251;-79
2022/01/24 21:20:37;;;;;;;80.23;39.63;;;;;-0.20;102868.00;;;;10463716;28;20189;-79
2022/01/24 21:25:41;;;;;;;85.10;40.53;;;;;-0.30;102873.00;;;;10511997;28;20223;-78
2022/01/24 21:30:45;;;;;;;76.50;36.93;;;;;-0.40;102862.00;;;;10519497;28;20224;-79
2022/01/24 21:35:50;;;;;;;73.87;38.40;;;;;-0.40;102862.00;;;;10445521;28;20194;-78
2022/01/24 21:40:55;;;;;;;73.70;37.03;;;;;-0.50;102875.00;;;;10479956;28;20205;-79
2022/01/24 21:45:57;;;;;;;76.47;37.23;;;;;-0.50;102865.00;;;;10479922;28;20220;-78
2022/01/24 21:51:01;;;;;;;77.97;36.67;;;;;-0.60;102875.00;;;;10454353;28;20281;-78
2022/01/24 21:56:04;;;;;;;71.60;34.43;;;;;-0.60;102873.00;;;;10459833;28;20198;-78
2022/01/24 22:01:06;;;;;;;73.27;35.63;;;;;-0.70;102870.00;;;;10464265;28;20207;-78
2022/01/24 22:06:08;;;;;;;77.83;39.43;;;;;-0.70;102875.00;;;;10495663;28;20188;-78
2022/01/24 22:11:11;;;;;;;75.37;35.27;;;;;-0.80;102860.00;;;;10479188;28;20217;-78
2022/01/24 22:16:14;;;;;;;71.73;34.80;;;;;-0.80;102860.00;;;;10489620;28;20191;-78
2022/01/24 22:21:16;;;;;;;89.40;38.60;;;;;-0.90;102855.00;;;;10454774;28;20225;-78
2022/01/24 22:26:22;;;;;;;78.30;37.90;;;;;-0.90;102859.00;;;;10455856;28;20193;-78
2022/01/24 22:31:27;;;;;;;86.50;39.67;;;;;-0.90;102855.00;;;;10453622;28;20202;-78
2022/01/24 22:36:31;;;;;;;80.47;40.70;;;;;-0.90;102846.00;;;;10485147;28;20690;-78
2022/01/24 22:46:47;;;;;;;85.73;42.50;;;;;-1.00;102850.00;;;;10469028;28;20836;-79
2022/01/24 22:51:49;;;;;;;92.33;44.07;;;;;-1.00;102857.00;;;;10524567;28;20209;-79
2022/01/24 22:56:51;;;;;;;89.23;43.83;;;;;-1.10;102858.00;;;;10498238;28;20186;-79
2022/01/24 23:01:53;;;;;;;93.63;44.47;;;;;-1.10;102857.00;;;;10460648;28;20198;-78
2022/01/24 23:06:55;;;;;;;84.33;41.50;;;;;-1.10;102863.00;;;;10421339;28;20217;-78
2022/01/24 23:12:00;;;;;;;93.73;43.30;;;;;-1.20;102864.00;;;;10490397;28;20201;-78
2022/01/24 23:22:29;;;;;;;90.13;43.40;;;;;-1.30;102854.00;;;;10469631;28;20204;-79
2022/01/24 23:27:42;;;;;;;93.93;43.23;;;;;-1.30;102860.00;;;;10502390;28;20200;-78
2022/01/24 23:32:58;;;;;;;91.60;42.60;;;;;-1.30;102855.00;;;;10468500;28;20213;-78
2022/01/24 23:43:21;;;;;;;95.70;42.87;;;;;-1.40;102854.00;;;;10468722;28;20190;-78
2022/01/24 23:48:24;;;;;;;95.13;44.57;;;;;-1.40;102851.00;;;;10482568;28;20205;-78
2022/01/24 23:53:26;;;;;;;83.77;41.93;;;;;-1.40;102853.00;;;;10441770;28;20199;-79
